createdAt,value
2022-08-02T00:02:20.654Z,98720.53
2022-08-02T00:04:47.270Z,98728.09
2022-08-02T00:07:14.912Z,98717.16
2022-08-02T00:09:42.608Z,98725.78
2022-08-02T00:12:09.630Z,98722.44
2022-08-02T00:14:36.733Z,98716.53
2022-08-02T00:17:03.505Z,98710.41
2022-08-02T00:19:29.948Z,98715.09
2022-08-02T00:21:56.413Z,98703.91
2022-08-02T00:24:30.911Z,98712.81
2022-08-02T00:26:57.838Z,98715.22
2022-08-02T00:29:24.909Z,98717.84
2022-08-02T00:31:51.359Z,98714.59
2022-08-02T00:34:29.345Z,98718.31
2022-08-02T00:36:58.678Z,98713.50
2022-08-02T00:39:34.677Z,98726.41
2022-08-02T00:42:01.948Z,98725.09
2022-08-02T00:44:28.393Z,98720.16
2022-08-02T00:46:54.836Z,98722.28
2022-08-02T00:49:21.534Z,98727.56
2022-08-02T00:51:48.107Z,98727.78
2022-08-02T00:54:14.820Z,98741.00
2022-08-02T00:56:49.757Z,98745.56
2022-08-02T00:59:17.637Z,98743.03
2022-08-02T01:01:57.145Z,98742.16
2022-08-02T01:04:29.695Z,98736.88
2022-08-02T01:06:57.232Z,98745.16
2022-08-02T01:09:23.698Z,98744.56
2022-08-02T01:11:50.140Z,98758.09
2022-08-02T01:14:16.760Z,98751.72
2022-08-02T01:16:48.605Z,98757.25
2022-08-02T01:19:21.055Z,98762.75
2022-08-02T01:22:58.537Z,98769.91
2022-08-02T01:25:27.160Z,98772.31
2022-08-02T01:28:02.655Z,98777.34
2022-08-02T01:30:29.156Z,98774.19
2022-08-02T01:32:57.791Z,98768.09
2022-08-02T01:35:28.485Z,98766.53
2022-08-02T01:38:43.674Z,98771.25
2022-08-02T01:41:10.403Z,98773.19
2022-08-02T01:43:36.866Z,98775.09
2022-08-02T01:46:03.325Z,98773.63
2022-08-02T01:48:29.844Z,98774.31
2022-08-02T01:50:56.279Z,98786.97
2022-08-02T01:53:22.870Z,98778.31
2022-08-02T01:55:57.573Z,98790.78
2022-08-02T01:58:26.991Z,98789.81
2022-08-02T02:00:53.498Z,98798.69
2022-08-02T02:03:20.892Z,98793.53
2022-08-02T02:05:48.096Z,98792.66
2022-08-02T02:08:14.546Z,98796.06
2022-08-02T02:10:53.960Z,98797.94
2022-08-02T02:13:20.421Z,98802.50
2022-08-02T02:16:01.421Z,98808.72
2022-08-02T02:18:28.095Z,98808.06
2022-08-02T02:20:54.625Z,98809.38
2022-08-02T02:23:25.115Z,98812.31
2022-08-02T02:25:53.010Z,98818.81
2022-08-02T02:28:24.450Z,98829.34
2022-08-02T02:30:53.338Z,98831.47
2022-08-02T02:33:20.599Z,98838.56
2022-08-02T02:35:48.040Z,98840.34
2022-08-02T02:38:14.937Z,98838.66
2022-08-02T02:40:41.529Z,98843.06
2022-08-02T02:43:08.222Z,98838.84
2022-08-02T02:45:34.671Z,98845.00
2022-08-02T02:48:01.117Z,98841.41
2022-08-02T02:50:27.687Z,98854.66
2022-08-02T02:52:54.154Z,98842.66
2022-08-02T02:55:20.607Z,98841.06
2022-08-02T02:57:47.042Z,98849.22
2022-08-02T03:00:14.157Z,98846.25
2022-08-02T03:02:42.427Z,98846.03
2022-08-02T03:05:09.526Z,98851.50
2022-08-02T03:07:36.025Z,98869.84
2022-08-02T03:10:06.527Z,98875.97
2022-08-02T03:12:34.212Z,98893.66
2022-08-02T03:15:04.246Z,98904.00
2022-08-02T03:17:41.328Z,98897.25
2022-08-02T03:20:14.124Z,98895.25
2022-08-02T03:22:40.881Z,98899.03
2022-08-02T03:25:08.718Z,98913.88
2022-08-02T03:27:35.265Z,98929.69
2022-08-02T03:30:01.771Z,98928.88
2022-08-02T03:32:28.306Z,98932.56
2022-08-02T03:34:54.765Z,98934.25
2022-08-02T03:37:21.420Z,98938.03
2022-08-02T03:39:52.814Z,98957.69
2022-08-02T03:42:20.873Z,98955.81
2022-08-02T03:44:48.261Z,98956.66
2022-08-02T03:47:14.701Z,98953.28
2022-08-02T03:49:41.576Z,98952.44
2022-08-02T03:52:08.197Z,98955.16
2022-08-02T03:54:45.086Z,98954.97
2022-08-02T03:57:12.021Z,98960.59
2022-08-02T03:59:42.961Z,98948.91
2022-08-02T04:02:09.949Z,98961.13
2022-08-02T04:04:36.724Z,98966.19
2022-08-02T04:07:03.307Z,98974.81
2022-08-02T04:09:34.096Z,98982.63
2022-08-02T04:12:00.523Z,99001.81
2022-08-02T04:14:26.958Z,98997.19
2022-08-02T04:17:06.298Z,99003.72
2022-08-02T04:19:36.171Z,99001.84
2022-08-02T04:22:04.863Z,99010.50
2022-08-02T04:24:34.992Z,99013.09
2022-08-02T04:27:19.129Z,99043.16
2022-08-02T04:29:47.063Z,99057.06
2022-08-02T04:32:14.183Z,99075.09
2022-08-02T04:34:40.961Z,99067.94
2022-08-02T04:37:07.384Z,99060.03
2022-08-02T04:39:34.290Z,99048.91
2022-08-02T04:42:00.730Z,99046.81
2022-08-02T04:44:27.351Z,99041.13
2022-08-02T04:46:54.583Z,99032.69
2022-08-02T04:49:21.121Z,99030.81
2022-08-02T04:51:47.659Z,99030.81
2022-08-02T04:54:14.153Z,99038.81
2022-08-02T04:56:40.681Z,99043.03
2022-08-02T04:59:07.274Z,99046.41
2022-08-02T05:01:34.856Z,99046.22
2022-08-02T05:04:01.396Z,99044.97
2022-08-02T05:06:27.848Z,99031.69
2022-08-02T05:08:54.294Z,99019.66
2022-08-02T05:11:22.252Z,98998.34
2022-08-02T05:13:57.457Z,99001.19
2022-08-02T05:16:31.505Z,99017.97
2022-08-02T05:18:59.573Z,99022.81
2022-08-02T05:21:26.065Z,99025.59
2022-08-02T05:23:52.501Z,99022.50
2022-08-02T05:26:18.969Z,99031.69
2022-08-02T05:28:45.438Z,99017.75
2022-08-02T05:31:12.536Z,99009.63
2022-08-02T05:33:40.125Z,99015.44
2022-08-02T05:36:06.922Z,99015.94
2022-08-02T05:38:37.023Z,99011.84
2022-08-02T05:41:03.998Z,99013.31
2022-08-02T05:43:30.448Z,99017.22
2022-08-02T05:45:56.935Z,99018.38
2022-08-02T05:48:26.566Z,99021.94
2022-08-02T05:51:04.427Z,99026.16
2022-08-02T05:53:58.213Z,99033.16
2022-08-02T05:56:38.879Z,99034.22
2022-08-02T05:59:18.117Z,99015.81
2022-08-02T06:01:44.880Z,99018.97
2022-08-02T06:04:16.028Z,99016.84
2022-08-02T06:06:44.059Z,99020.25
2022-08-02T06:09:14.975Z,98987.94
2022-08-02T06:12:01.334Z,98981.75
2022-08-02T06:14:31.769Z,98983.44
2022-08-02T06:16:58.293Z,98983.97
2022-08-02T06:19:25.832Z,98988.06
2022-08-02T06:22:35.044Z,98978.94
2022-08-02T06:24:38.984Z,98960.72
2022-08-02T06:27:05.475Z,98958.97
2022-08-02T06:29:35.690Z,98968.38
2022-08-02T06:32:07.093Z,98968.25
2022-08-02T06:34:38.313Z,98943.88
2022-08-02T06:37:27.929Z,98930.84
2022-08-02T06:40:02.126Z,98928.19
2022-08-02T06:42:38.751Z,98917.75
2022-08-02T06:45:05.635Z,98918.13
2022-08-02T06:47:32.078Z,98902.50
2022-08-02T06:49:58.662Z,98880.75
2022-08-02T06:52:28.930Z,98859.50
2022-08-02T06:54:59.906Z,98858.75
2022-08-02T06:57:27.283Z,98867.53
2022-08-02T06:59:53.797Z,98866.00
2022-08-02T07:02:20.256Z,98874.16
2022-08-02T07:04:46.721Z,98873.91
2022-08-02T07:07:13.153Z,98871.72
2022-08-02T07:09:39.646Z,98881.56
2022-08-02T07:12:22.567Z,98881.00
2022-08-02T07:14:49.014Z,98883.75
2022-08-02T07:17:15.458Z,98878.56
2022-08-02T07:19:41.954Z,98883.72
2022-08-02T07:22:08.469Z,98882.50
2022-08-02T07:24:34.894Z,98880.34
2022-08-02T07:27:11.085Z,98883.44
2022-08-02T07:29:46.690Z,98896.63
2022-08-02T07:32:17.894Z,98941.91
2022-08-02T07:34:53.119Z,98950.22
2022-08-02T07:37:35.694Z,98953.19
2022-08-02T07:40:14.540Z,98912.78
2022-08-02T07:42:44.798Z,98909.09
2022-08-02T07:45:11.786Z,98917.13
2022-08-02T07:47:39.249Z,98916.34
2022-08-02T07:50:06.266Z,98925.50
2022-08-02T07:52:32.745Z,98915.81
2022-08-02T07:54:59.133Z,98900.84
2022-08-02T07:57:25.615Z,98923.22
2022-08-02T07:59:52.166Z,98930.94
2022-08-02T08:02:18.645Z,98963.13
2022-08-02T08:04:45.090Z,98985.38
2022-08-02T08:07:11.891Z,98951.31
2022-08-02T08:09:50.691Z,98940.88
2022-08-02T08:12:20.113Z,98965.63
2022-08-02T08:14:46.575Z,98990.78
2022-08-02T08:17:13.143Z,98997.28
2022-08-02T08:19:51.246Z,98999.56
2022-08-02T08:22:19.290Z,99017.13
2022-08-02T08:24:45.775Z,99049.16
2022-08-02T08:27:14.619Z,99044.50
2022-08-02T08:29:44.066Z,99079.13
2022-08-02T08:32:16.330Z,99116.53
2022-08-02T08:34:45.437Z,99195.53
2022-08-02T08:37:17.041Z,99196.56
2022-08-02T08:39:57.803Z,99239.72
2022-08-02T08:42:28.939Z,99252.22
2022-08-02T08:44:56.558Z,99226.50
2022-08-02T08:47:25.863Z,99301.56
2022-08-02T08:49:53.349Z,99368.41
2022-08-02T08:52:20.459Z,99442.41
2022-08-02T08:54:48.608Z,99436.13
2022-08-02T08:57:16.106Z,99469.94
2022-08-02T08:59:42.633Z,99605.97
2022-08-02T09:02:20.404Z,99829.81
2022-08-02T09:04:54.542Z,99818.75
2022-08-02T09:07:22.141Z,99854.25
2022-08-02T09:09:48.606Z,99897.50
2022-08-02T09:12:16.038Z,100032.25
2022-08-02T09:14:42.484Z,99951.56
2022-08-02T09:17:12.128Z,99880.97
2022-08-02T09:19:38.743Z,100014.19
2022-08-02T09:22:13.157Z,100063.88
2022-08-02T09:24:47.771Z,100128.16
2022-08-02T09:27:18.929Z,100185.97
2022-08-02T09:30:12.550Z,100278.84
2022-08-02T09:32:44.600Z,100275.94
2022-08-02T09:35:11.046Z,100396.91
2022-08-02T09:37:37.529Z,100464.19
2022-08-02T09:40:06.795Z,100530.34
2022-08-02T09:42:34.217Z,100570.38
2022-08-02T09:45:01.410Z,100616.16
2022-08-02T09:47:30.988Z,100634.94
2022-08-02T09:49:58.410Z,100618.75
2022-08-02T09:52:36.929Z,100680.50
2022-08-02T09:55:05.181Z,100762.03
2022-08-02T09:57:33.590Z,100813.63
2022-08-02T10:00:00.134Z,100879.47
2022-08-02T10:02:26.837Z,100872.50
2022-08-02T10:04:54.141Z,100896.38
2022-08-02T10:07:22.550Z,100923.53
2022-08-02T10:09:49.480Z,100912.63
2022-08-02T10:12:16.074Z,100927.34
2022-08-02T10:14:43.820Z,100936.13
2022-08-02T10:17:10.393Z,100914.75
2022-08-02T10:19:59.768Z,100941.66
2022-08-02T10:22:23.395Z,100941.84
2022-08-02T10:24:49.882Z,100973.53
2022-08-02T10:27:19.730Z,100974.56
2022-08-02T10:29:55.326Z,100985.47
2022-08-02T10:32:36.638Z,100970.72
2022-08-02T10:35:25.994Z,100972.19
2022-08-02T10:37:54.589Z,100973.31
2022-08-02T10:40:24.072Z,100981.94
2022-08-02T10:42:52.108Z,100999.25
2022-08-02T10:45:19.950Z,101007.41
2022-08-02T10:48:03.487Z,101003.72
2022-08-02T10:50:45.292Z,100999.50
2022-08-02T10:53:23.899Z,100994.34
2022-08-02T10:55:50.780Z,101007.41
2022-08-02T10:58:26.159Z,101003.75
2022-08-02T11:00:57.567Z,100999.63
2022-08-02T11:03:39.430Z,100999.16
2022-08-02T11:06:26.098Z,100996.50
2022-08-02T11:09:31.905Z,100986.75
2022-08-02T11:12:06.844Z,100984.81
2022-08-02T11:14:37.899Z,100981.75
2022-08-02T11:17:05.808Z,100978.31
2022-08-02T11:19:32.511Z,100975.75
2022-08-02T11:22:06.155Z,100978.97
2022-08-02T11:24:33.755Z,100985.31
2022-08-02T11:27:01.977Z,100971.06
2022-08-02T11:29:32.688Z,100973.00
2022-08-02T11:32:05.897Z,100967.13
2022-08-02T11:34:37.472Z,100970.28
2022-08-02T11:37:04.506Z,100963.75
2022-08-02T11:39:31.032Z,100970.53
2022-08-02T11:41:59.080Z,100967.38
2022-08-02T11:44:26.446Z,100971.97
2022-08-02T11:46:56.725Z,100961.28
2022-08-02T11:49:23.291Z,100967.16
2022-08-02T11:51:54.280Z,100965.56
2022-08-02T11:54:31.496Z,100965.09
2022-08-02T11:57:21.658Z,100958.66
2022-08-02T11:59:49.756Z,100957.44
2022-08-02T12:02:16.559Z,100951.00
2022-08-02T12:04:44.109Z,100952.81
2022-08-02T12:07:10.706Z,100947.50
2022-08-02T12:09:41.144Z,100947.97
2022-08-02T12:12:07.830Z,100938.75
2022-08-02T12:14:34.451Z,100945.13
2022-08-02T12:17:19.599Z,100940.94
2022-08-02T12:19:47.890Z,100940.03
2022-08-02T12:22:24.640Z,100935.47
2022-08-02T12:24:55.556Z,100935.13
2022-08-02T12:27:31.711Z,100922.66
2022-08-02T12:30:09.320Z,100926.25
2022-08-02T12:32:36.296Z,100927.66
2022-08-02T12:35:02.877Z,100929.19
2022-08-02T12:37:29.327Z,100922.81
2022-08-02T12:39:55.775Z,100927.19
2022-08-02T12:42:22.290Z,100932.41
2022-08-02T12:44:58.066Z,100923.63
2022-08-02T12:47:24.876Z,100924.38
2022-08-02T12:50:20.653Z,100917.13
2022-08-02T12:52:48.524Z,100914.34
2022-08-02T12:55:24.218Z,100916.41
2022-08-02T12:57:58.677Z,100907.13
2022-08-02T13:00:51.865Z,100909.88
2022-08-02T13:04:09.000Z,100903.13
2022-08-02T13:06:23.047Z,100899.81
2022-08-02T13:08:58.467Z,100896.94
2022-08-02T13:11:25.115Z,100895.56
2022-08-02T13:13:51.608Z,100874.13
2022-08-02T13:16:18.084Z,100879.91
2022-08-02T13:18:57.396Z,100887.53
2022-08-02T13:21:40.671Z,100878.19
2022-08-02T13:24:32.806Z,100872.13
2022-08-02T13:26:57.753Z,100869.06
2022-08-02T13:29:25.724Z,100880.59
2022-08-02T13:31:52.294Z,100863.09
2022-08-02T13:34:18.756Z,100867.00
2022-08-02T13:36:45.209Z,100871.44
2022-08-02T13:39:12.038Z,100857.56
2022-08-02T13:41:38.506Z,100874.81
2022-08-02T13:44:10.309Z,100859.69
2022-08-02T13:46:39.742Z,100857.78
2022-08-02T13:49:17.859Z,100854.81
2022-08-02T13:51:45.830Z,100845.66
2022-08-02T13:54:12.294Z,100848.41
2022-08-02T13:56:38.730Z,100839.38
2022-08-02T13:59:23.678Z,100851.44
2022-08-02T14:01:52.538Z,100826.44
2022-08-02T14:04:19.089Z,100844.38
2022-08-02T14:06:45.514Z,100845.84
2022-08-02T14:09:16.737Z,100851.69
2022-08-02T14:11:43.959Z,100836.34
2022-08-02T14:14:15.671Z,100837.81
2022-08-02T14:16:43.419Z,100844.28
2022-08-02T14:19:16.679Z,100845.28
2022-08-02T14:21:47.905Z,100850.06
2022-08-02T14:24:20.271Z,100848.59
2022-08-02T14:26:46.925Z,100837.84
2022-08-02T14:29:14.051Z,100843.28
2022-08-02T14:31:44.474Z,100843.28
2022-08-02T14:34:14.968Z,100841.19
2022-08-02T14:36:41.452Z,100829.03
2022-08-02T14:39:07.935Z,100828.53
2022-08-02T14:42:00.212Z,100833.09
2022-08-02T14:44:22.865Z,100830.91
2022-08-02T14:46:51.353Z,100823.78
2022-08-02T14:49:25.374Z,100819.81
2022-08-02T14:51:53.966Z,100823.50
2022-08-02T14:54:20.442Z,100821.19
2022-08-02T14:56:55.767Z,100816.69
2022-08-02T14:59:22.265Z,100814.81
2022-08-02T15:01:48.728Z,100817.53
2022-08-02T15:04:15.317Z,100809.91
2022-08-02T15:06:41.865Z,100803.09
2022-08-02T15:09:08.378Z,100805.47
2022-08-02T15:11:47.920Z,100797.66
2022-08-02T15:14:22.183Z,100808.38
2022-08-02T15:16:58.354Z,100803.34
2022-08-02T15:19:56.702Z,100803.50
2022-08-02T15:22:16.600Z,100798.84
2022-08-02T15:24:45.477Z,100788.72
2022-08-02T15:27:14.116Z,100795.16
2022-08-02T15:29:41.540Z,100798.13
2022-08-02T15:32:08.058Z,100792.06
2022-08-02T15:34:34.560Z,100777.81
2022-08-02T15:37:01.039Z,100780.31
2022-08-02T15:39:27.490Z,100790.03
2022-08-02T15:41:53.952Z,100784.00
2022-08-02T15:44:20.387Z,100783.50
2022-08-02T15:46:46.851Z,100784.16
2022-08-02T15:49:13.310Z,100785.84
2022-08-02T15:51:39.805Z,100784.94
2022-08-02T15:54:06.295Z,100785.06
2022-08-02T15:56:32.747Z,100773.06
2022-08-02T15:58:59.241Z,100779.50
2022-08-02T16:01:38.026Z,100783.03
2022-08-02T16:04:06.344Z,100789.16
2022-08-02T16:06:33.269Z,100771.13
2022-08-02T16:08:59.729Z,100768.47
2022-08-02T16:11:26.188Z,100762.56
2022-08-02T16:13:55.509Z,100767.53
2022-08-02T16:16:33.167Z,100765.22
2022-08-02T16:19:00.099Z,100760.41
2022-08-02T16:21:48.126Z,100762.28
2022-08-02T16:24:14.574Z,100760.41
2022-08-02T16:26:41.128Z,100756.78
2022-08-02T16:29:07.597Z,100754.03
2022-08-02T16:31:36.497Z,100757.63
2022-08-02T16:34:05.156Z,100754.63
2022-08-02T16:36:31.695Z,100765.81
2022-08-02T16:38:58.189Z,100759.00
2022-08-02T16:41:24.694Z,100748.53
2022-08-02T16:44:11.161Z,100751.25
2022-08-02T16:46:37.725Z,100749.41
2022-08-02T16:49:04.313Z,100734.81
2022-08-02T16:51:30.889Z,100754.41
2022-08-02T16:53:59.063Z,100751.47
2022-08-02T16:56:27.413Z,100753.06
2022-08-02T16:58:53.902Z,100750.69
2022-08-02T17:01:24.164Z,100751.69
2022-08-02T17:06:47.656Z,100742.91
2022-08-02T17:10:06.427Z,100745.81
2022-08-02T17:12:05.686Z,100737.88
2022-08-02T17:14:36.655Z,100734.09
2022-08-02T17:17:21.875Z,100741.19
2022-08-02T17:19:48.389Z,100738.16
2022-08-02T17:22:16.093Z,100738.88
2022-08-02T17:24:44.292Z,100740.19
2022-08-02T17:27:17.066Z,100739.16
2022-08-02T17:29:43.588Z,100733.81
2022-08-02T17:32:12.901Z,100731.09
2022-08-02T17:34:39.667Z,100732.91
2022-08-02T17:37:15.542Z,100735.03
2022-08-02T17:39:44.122Z,100736.25
2022-08-02T17:42:19.698Z,100744.31
2022-08-02T17:44:50.954Z,100740.16
2022-08-02T17:47:18.124Z,100732.28
2022-08-02T17:49:48.389Z,100730.78
2022-08-02T17:52:50.987Z,100738.91
2022-08-02T17:55:03.277Z,100730.47
2022-08-02T17:57:55.381Z,100727.81
2022-08-02T18:00:17.218Z,100728.06
2022-08-02T18:02:43.651Z,100738.91
2022-08-02T18:05:19.567Z,100732.34
2022-08-02T18:07:53.022Z,100733.63
2022-08-02T18:10:24.810Z,100730.81
2022-08-02T18:12:53.607Z,100735.56
2022-08-02T18:15:23.075Z,100737.41
2022-08-02T18:17:49.614Z,100731.91
2022-08-02T18:20:17.069Z,100746.28
2022-08-02T18:22:44.902Z,100754.72
2022-08-02T18:25:11.824Z,100749.34
2022-08-02T18:27:58.267Z,100750.75
2022-08-02T18:30:28.505Z,100743.78
2022-08-02T18:33:58.365Z,100753.50
2022-08-02T18:35:43.334Z,100765.56
2022-08-02T18:41:02.923Z,100745.44
2022-08-02T18:43:29.931Z,100754.63
2022-08-02T18:46:05.703Z,100752.00
2022-08-02T18:48:34.927Z,100750.78
2022-08-02T18:51:02.211Z,100752.66
2022-08-02T18:53:41.875Z,100757.91
2022-08-02T18:56:09.206Z,100754.44
2022-08-02T18:58:35.687Z,100751.22
2022-08-02T19:01:05.243Z,100741.91
2022-08-02T19:03:49.144Z,100743.91
2022-08-02T19:06:19.848Z,100743.22
2022-08-02T19:09:05.994Z,100740.31
2022-08-02T19:11:41.049Z,100732.56
2022-08-02T19:14:07.822Z,100724.81
2022-08-02T19:16:36.586Z,100724.59
2022-08-02T19:19:05.777Z,100717.56
2022-08-02T19:22:16.258Z,100705.84
2022-08-02T19:24:18.966Z,100690.50
2022-08-02T19:26:51.739Z,100688.72
2022-08-02T19:29:25.077Z,100684.94
2022-08-02T19:32:06.400Z,100687.66
2022-08-02T19:34:52.836Z,100669.53
2022-08-02T19:37:19.383Z,100672.53
2022-08-02T19:39:46.149Z,100674.72
2022-08-02T19:42:14.559Z,100678.63
2022-08-02T19:44:45.026Z,100679.22
2022-08-02T19:47:12.619Z,100683.88
2022-08-02T19:49:46.242Z,100685.91
2022-08-02T19:52:21.579Z,100679.84
2022-08-02T19:54:55.562Z,100673.03
2022-08-02T19:57:25.038Z,100683.97
2022-08-02T19:59:52.476Z,100683.34
2022-08-02T20:02:20.631Z,100678.88
2022-08-02T20:04:49.911Z,100674.34
2022-08-02T20:07:49.953Z,100677.13
2022-08-02T20:10:06.742Z,100675.94
2022-08-02T20:12:38.757Z,100683.22
2022-08-02T20:17:57.402Z,100684.66
2022-08-02T20:20:24.052Z,100676.13
2022-08-02T20:23:32.837Z,100665.66
2022-08-02T20:26:02.155Z,100654.66
2022-08-02T20:28:28.924Z,100654.91
2022-08-02T20:30:55.471Z,100638.13
2022-08-02T20:33:23.224Z,100637.38
2022-08-02T20:35:51.590Z,100629.59
2022-08-02T20:38:19.908Z,100635.19
2022-08-02T20:40:51.348Z,100639.28
2022-08-02T20:43:17.831Z,100623.94
2022-08-02T20:45:45.780Z,100613.94
2022-08-02T20:48:12.278Z,100626.19
2022-08-02T20:50:49.490Z,100602.72
2022-08-02T20:53:23.561Z,100588.75
2022-08-02T20:55:53.398Z,100612.91
2022-08-02T20:58:20.135Z,100587.28
2022-08-02T21:00:46.903Z,100589.09
2022-08-02T21:03:14.416Z,100585.31
2022-08-02T21:05:55.227Z,100579.25
2022-08-02T21:08:22.845Z,100569.41
2022-08-02T21:10:52.460Z,100571.34
2022-08-02T21:13:23.215Z,100566.63
2022-08-02T21:15:50.777Z,100569.06
2022-08-02T21:18:23.010Z,100579.41
2022-08-02T21:20:56.083Z,100581.13
2022-08-02T21:23:23.357Z,100576.88
2022-08-02T21:25:57.392Z,100584.88
2022-08-02T21:28:24.891Z,100594.72
2022-08-02T21:31:10.559Z,100585.00
2022-08-02T21:33:56.708Z,100572.81
2022-08-02T21:36:31.726Z,100566.19
2022-08-02T21:39:09.032Z,100568.03
2022-08-02T21:41:39.918Z,100578.41
2022-08-02T21:44:16.971Z,100576.47
2022-08-02T21:46:45.400Z,100578.41
2022-08-02T21:49:16.323Z,100580.34
2022-08-02T21:51:43.375Z,100593.59
2022-08-02T21:54:18.147Z,100600.22
2022-08-02T21:56:48.467Z,100602.66
2022-08-02T21:59:17.114Z,100602.44
2022-08-02T22:01:52.408Z,100623.72
2022-08-02T22:04:20.516Z,100602.22
2022-08-02T22:06:48.825Z,100603.44
2022-08-02T22:09:17.877Z,100621.38
2022-08-02T22:12:04.040Z,100623.28
2022-08-02T22:14:30.499Z,100621.38
2022-08-02T22:16:57.061Z,100623.09
2022-08-02T22:19:23.504Z,100623.28
2022-08-02T22:21:55.607Z,100632.28
2022-08-02T22:24:29.846Z,100643.19
2022-08-02T22:26:56.831Z,100638.47
2022-08-02T22:29:23.326Z,100642.22
2022-08-02T22:31:49.784Z,100639.53
2022-08-02T22:34:37.045Z,100638.22
2022-08-02T22:37:05.836Z,100647.06
2022-08-02T22:39:33.893Z,100641.72
2022-08-02T22:42:05.534Z,100656.81
2022-08-02T22:44:33.744Z,100647.06
2022-08-02T22:47:13.739Z,100647.94
2022-08-02T22:49:45.410Z,100659.47
2022-08-02T22:52:20.280Z,100657.75
2022-08-02T22:54:47.567Z,100643.88
2022-08-02T22:57:14.022Z,100669.13
2022-08-02T22:58:45.113Z,100756.63
2022-08-02T22:58:48.814Z,100746.13
2022-08-02T22:59:08.008Z,100672.72
2022-08-02T22:59:41.138Z,100689.66
2022-08-02T23:02:08.967Z,100682.81
2022-08-02T23:04:36.574Z,100671.06
2022-08-02T23:07:03.522Z,100688.28
2022-08-02T23:09:29.999Z,100691.91
2022-08-02T23:11:56.474Z,100695.66
2022-08-02T23:14:22.938Z,100679.22
2022-08-02T23:17:08.410Z,100690.13
2022-08-02T23:19:52.747Z,100685.25
2022-08-02T23:22:29.417Z,100685.13
2022-08-02T23:24:56.162Z,100670.75
2022-08-02T23:27:22.604Z,100660.50
2022-08-02T23:29:49.052Z,100659.44
2022-08-02T23:32:15.899Z,100656.56
2022-08-02T23:34:42.856Z,100638.31
2022-08-02T23:37:09.382Z,100651.97
2022-08-02T23:39:36.383Z,100638.31
2022-08-02T23:42:03.850Z,100642.38
2022-08-02T23:44:30.492Z,100628.50
2022-08-02T23:46:57.563Z,100618.47
2022-08-02T23:49:24.217Z,100618.91
2022-08-02T23:51:50.828Z,100637.88
2022-08-02T23:54:17.723Z,100619.31
2022-08-02T23:56:44.405Z,100619.56
2022-08-02T23:59:10.963Z,100619.75
